Time;durP1;ratioP1;P1;durP2;ratioP2;P2;SDS_P1;SDS_P2;PMS_P1;PMS_P2;Temp;Humidity;BMP_temperature;BMP_pressure;BME280_temperature;BME280_humidity;BME280_pressure;Samples;Min_cycle;Max_cycle;Signal;HPM_P1;HPM_P2
2023/08/04 00:00:09;;;;;;;13.98;11.65;;;;;;;22.57;nan;99827.94;5014778;28;20022;-70
2023/08/04 00:02:35;;;;;;;14.07;11.05;;;;;;;22.52;nan;99831.56;5017068;28;20472;-70
2023/08/04 00:05:01;;;;;;;14.32;11.27;;;;;;;22.55;nan;99835.50;5025980;28;20057;-69
2023/08/04 00:07:26;;;;;;;16.73;10.93;;;;;;;22.49;nan;99842.94;5017227;28;20076;-69
2023/08/04 00:09:52;;;;;;;12.25;10.90;;;;;;;22.38;nan;99823.69;5019573;28;20037;-68
2023/08/04 00:12:17;;;;;;;14.40;11.00;;;;;;;22.32;nan;99824.97;5016892;28;20022;-70
2023/08/04 00:14:45;;;;;;;13.60;11.15;;;;;;;22.27;nan;99822.47;5019428;28;20029;-69
2023/08/04 00:17:10;;;;;;;15.93;11.27;;;;;;;22.30;nan;99821.81;5019187;28;20025;-70
2023/08/04 00:19:36;;;;;;;16.88;11.00;;;;;;;22.21;nan;99807.63;5020774;28;20116;-69
2023/08/04 00:22:01;;;;;;;13.27;10.57;;;;;;;22.23;nan;99821.50;5025456;28;20124;-68
2023/08/04 00:24:26;;;;;;;14.23;10.95;;;;;;;22.21;nan;99816.44;5019046;28;20033;-68
2023/08/04 00:26:52;;;;;;;13.80;11.73;;;;;;;22.19;nan;99823.22;5023535;28;20033;-68
2023/08/04 00:29:17;;;;;;;14.70;11.02;;;;;;;22.14;nan;99820.69;5032936;28;20513;-69
2023/08/04 00:31:42;;;;;;;15.93;11.85;;;;;;;21.99;nan;99806.66;5034119;28;20117;-69
2023/08/04 00:34:08;;;;;;;12.43;10.63;;;;;;;22.03;nan;99815.66;5035047;28;20018;-68
2023/08/04 00:36:33;;;;;;;13.80;11.80;;;;;;;21.99;nan;99813.91;5032564;28;20076;-67
2023/08/04 00:38:59;;;;;;;16.00;11.48;;;;;;;21.93;nan;99804.44;5025228;28;20055;-67
2023/08/04 00:41:24;;;;;;;14.27;11.60;;;;;;;21.73;nan;99773.69;5024163;28;20026;-67
2023/08/04 00:43:49;;;;;;;12.63;11.07;;;;;;;21.94;nan;99808.72;5032420;28;20029;-74
2023/08/04 00:46:16;;;;;;;15.18;11.90;;;;;;;21.84;nan;99799.09;5037835;28;20014;-75
2023/08/04 00:48:42;;;;;;;13.48;11.57;;;;;;;21.83;nan;99794.81;5038322;28;20036;-74
2023/08/04 00:51:07;;;;;;;16.25;12.18;;;;;;;21.75;nan;99791.03;5039350;28;20013;-74
2023/08/04 00:53:33;;;;;;;16.27;12.07;;;;;;;21.78;nan;99795.75;5035995;28;20088;-74
2023/08/04 00:55:58;;;;;;;13.77;12.05;;;;;;;21.83;nan;99809.00;5036739;28;20466;-73
2023/08/04 00:58:24;;;;;;;14.05;11.20;;;;;;;21.75;nan;99799.09;5016146;28;20033;-74
2023/08/04 01:00:49;;;;;;;14.65;11.75;;;;;;;21.79;nan;99799.25;5017589;28;20037;-74
2023/08/04 01:03:15;;;;;;;17.77;12.55;;;;;;;21.69;nan;99786.13;5025772;28;20029;-74
2023/08/04 01:06:00;;;;;;;15.50;11.68;;;;;;;21.67;nan;99791.84;5020560;28;20029;-73
2023/08/04 01:08:33;;;;;;;17.88;11.02;;;;;;;21.66;nan;99790.25;5022449;28;20100;-74
2023/08/04 01:11:07;;;;;;;16.95;11.90;;;;;;;21.60;nan;99783.47;5017249;28;20033;-74
2023/08/04 01:13:34;;;;;;;17.63;11.32;;;;;;;21.57;nan;99781.41;5021774;28;20065;-74
2023/08/04 01:16:04;;;;;;;16.38;11.55;;;;;;;21.53;nan;99785.81;5016510;28;20034;-74
2023/08/04 01:18:30;;;;;;;16.38;12.52;;;;;;;21.51;nan;99775.41;5019592;28;20082;-74
2023/08/04 01:20:55;;;;;;;15.57;12.07;;;;;;;21.45;nan;99780.16;5021315;28;20033;-73
2023/08/04 01:23:21;;;;;;;15.25;11.80;;;;;;;21.53;nan;99786.59;5025960;28;20172;-73
2023/08/04 01:25:47;;;;;;;16.67;11.63;;;;;;;21.49;nan;99780.28;5017419;28;20037;-76
2023/08/04 01:28:16;;;;;;;16.88;12.23;;;;;;;21.45;nan;99772.09;5019942;28;20037;-74
2023/08/04 01:30:44;;;;;;;16.70;12.25;;;;;;;21.54;nan;99782.03;5020225;28;20024;-75
2023/08/04 01:33:10;;;;;;;15.43;11.70;;;;;;;21.52;nan;99776.19;5016750;28;20087;-75
2023/08/04 01:35:36;;;;;;;13.95;12.52;;;;;;;21.41;nan;99770.38;5022133;28;20026;-75
2023/08/04 01:38:01;;;;;;;15.52;12.38;;;;;;;21.47;nan;99776.34;5016766;28;20041;-74
2023/08/04 01:40:27;;;;;;;12.75;11.43;;;;;;;21.45;nan;99779.34;5016130;28;20034;-74
2023/08/04 01:42:52;;;;;;;17.35;11.82;;;;;;;21.46;nan;99780.94;5020698;28;20029;-74
2023/08/04 01:45:17;;;;;;;13.93;11.32;;;;;;;21.49;nan;99790.22;5023063;28;20185;-76
2023/08/04 01:47:44;;;;;;;15.85;11.52;;;;;;;21.41;nan;99781.84;5015519;28;20014;-75
2023/08/04 01:50:10;;;;;;;14.57;11.40;;;;;;;21.40;nan;99787.50;5015474;28;20037;-75
2023/08/04 01:52:36;;;;;;;17.00;11.20;;;;;;;21.39;nan;99780.56;5014551;28;20855;-76
2023/08/04 01:55:02;;;;;;;15.02;11.90;;;;;;;21.34;nan;99780.72;5014377;28;20116;-75
2023/08/04 01:57:27;;;;;;;16.60;11.73;;;;;;;21.27;nan;99772.34;5011389;28;20515;-75
2023/08/04 01:59:53;;;;;;;12.82;11.05;;;;;;;21.37;nan;99782.75;5013654;28;20034;-76
2023/08/04 02:02:18;;;;;;;16.73;12.15;;;;;;;21.39;nan;99792.09;5014795;28;20472;-74
2023/08/04 02:04:44;;;;;;;15.25;11.15;;;;;;;21.37;nan;99788.13;5014122;28;20036;-74
2023/08/04 02:07:09;;;;;;;14.05;11.50;;;;;;;21.39;nan;99793.97;5017317;28;20412;-75
2023/08/04 02:09:34;;;;;;;18.30;10.48;;;;;;;21.31;nan;99774.09;5017466;28;20030;-75
2023/08/04 02:12:00;;;;;;;12.48;10.93;;;;;;;21.37;nan;99786.22;5016762;28;20361;-74
2023/08/04 02:14:29;;;;;;;12.73;10.80;;;;;;;21.39;nan;99789.41;5012708;28;20510;-74
2023/08/04 02:16:55;;;;;;;12.82;10.65;;;;;;;21.39;nan;99786.72;5014404;28;20507;-74
2023/08/04 02:19:22;;;;;;;14.13;11.07;;;;;;;21.30;nan;99775.19;5055149;28;20121;-74
2023/08/04 02:21:48;;;;;;;12.85;10.57;;;;;;;21.23;nan;99769.50;5019771;28;20075;-74
2023/08/04 02:24:13;;;;;;;15.95;11.00;;;;;;;21.30;nan;99785.09;5016488;28;20036;-74
2023/08/04 02:26:39;;;;;;;13.50;11.25;;;;;;;21.27;nan;99789.19;5016966;28;20038;-75
2023/08/04 02:29:04;;;;;;;13.20;9.82;;;;;;;21.23;nan;99775.63;5020039;28;20030;-75
2023/08/04 02:31:32;;;;;;;13.60;10.98;;;;;;;21.22;nan;99797.38;5019075;28;20022;-75
2023/08/04 02:33:58;;;;;;;16.70;10.60;;;;;;;21.14;nan;99785.56;5024634;28;20028;-75
2023/08/04 02:36:23;;;;;;;15.00;10.40;;;;;;;21.15;nan;99789.00;5018723;28;20119;-74
2023/08/04 02:38:49;;;;;;;14.48;10.98;;;;;;;21.16;nan;99790.56;5019859;28;20464;-74
2023/08/04 02:41:14;;;;;;;14.77;10.90;;;;;;;21.20;nan;99789.66;5021042;28;20026;-75
2023/08/04 02:43:40;;;;;;;12.30;11.00;;;;;;;21.19;nan;99792.63;5021985;28;20079;-75
2023/08/04 02:46:05;;;;;;;16.63;10.60;;;;;;;21.26;nan;99803.66;5020405;28;20512;-76
2023/08/04 02:48:31;;;;;;;12.15;10.00;;;;;;;21.16;nan;99794.03;5020101;28;20024;-69
2023/08/04 02:51:06;;;;;;;15.50;11.02;;;;;;;21.23;nan;99805.09;5019197;28;20037;-70
2023/08/04 02:53:33;;;;;;;14.45;10.55;;;;;;;21.18;nan;99807.13;5021817;28;20025;-70
2023/08/04 02:55:59;;;;;;;13.70;10.90;;;;;;;21.19;nan;99814.84;5017937;28;20033;-70
2023/08/04 02:58:26;;;;;;;15.38;10.90;;;;;;;21.17;nan;99805.56;5021175;28;20036;-69
2023/08/04 03:00:53;;;;;;;13.27;11.45;;;;;;;21.09;nan;99800.94;5017519;28;20056;-70
2023/08/04 03:03:18;;;;;;;14.30;11.75;;;;;;;21.04;nan;99799.97;5022621;28;20507;-68
2023/08/04 03:05:43;;;;;;;17.08;11.45;;;;;;;21.10;nan;99810.56;5017987;28;20029;-68
2023/08/04 03:08:09;;;;;;;13.98;11.27;;;;;;;21.11;nan;99817.50;5018686;28;20056;-69
2023/08/04 03:10:38;;;;;;;21.10;12.68;;;;;;;21.09;nan;99817.00;5019123;28;20026;-70
2023/08/04 03:13:04;;;;;;;13.15;10.90;;;;;;;21.08;nan;99812.75;5016042;28;20087;-69
2023/08/04 03:15:29;;;;;;;17.15;11.35;;;;;;;21.17;nan;99826.97;5018639;28;20443;-69
2023/08/04 03:17:55;;;;;;;15.95;11.80;;;;;;;21.11;nan;99828.97;5020401;28;20163;-70
2023/08/04 03:20:20;;;;;;;21.05;11.50;;;;;;;21.06;nan;99825.66;5018876;28;20018;-70
2023/08/04 03:22:46;;;;;;;18.33;12.15;;;;;;;21.03;nan;99821.72;5014834;28;20049;-70
2023/08/04 03:25:11;;;;;;;16.52;11.88;;;;;;;21.02;nan;99818.25;5016836;28;20033;-70
2023/08/04 03:27:36;;;;;;;14.13;12.23;;;;;;;20.99;nan;99816.19;5016624;28;20025;-74
2023/08/04 03:30:03;;;;;;;14.20;11.35;;;;;;;21.00;nan;99825.03;5017915;28;20113;-74
2023/08/04 03:32:28;;;;;;;18.33;12.43;;;;;;;20.96;nan;99822.16;5019684;28;20022;-73
2023/08/04 03:34:54;;;;;;;16.63;12.25;;;;;;;20.93;nan;99825.47;5014642;28;20570;-74
2023/08/04 03:37:19;;;;;;;14.88;11.80;;;;;;;20.95;nan;99825.94;5018751;28;20025;-74
2023/08/04 03:39:44;;;;;;;16.73;11.88;;;;;;;20.94;nan;99828.91;5016961;28;20044;-74
2023/08/04 03:42:10;;;;;;;15.52;12.52;;;;;;;20.92;nan;99828.44;5019364;28;20021;-75
2023/08/04 03:44:35;;;;;;;17.10;12.80;;;;;;;20.92;nan;99829.22;5018153;28;20029;-73
2023/08/04 03:47:01;;;;;;;14.77;12.48;;;;;;;20.85;nan;99815.50;5017116;28;20021;-75
2023/08/04 03:49:28;;;;;;;18.05;12.35;;;;;;;20.92;nan;99825.75;5020475;28;20753;-76
2023/08/04 03:51:54;;;;;;;18.17;12.95;;;;;;;20.85;nan;99807.47;5018246;28;20388;-75
2023/08/04 03:54:19;;;;;;;17.30;13.15;;;;;;;20.70;nan;99781.09;5017588;28;20029;-74
2023/08/04 03:56:45;;;;;;;16.85;13.32;;;;;;;21.02;nan;99828.16;5015285;28;20494;-74
2023/08/04 03:59:11;;;;;;;15.13;12.70;;;;;;;20.90;nan;99807.34;5016831;28;20116;-74
2023/08/04 04:01:37;;;;;;;17.42;13.40;;;;;;;20.97;nan;99829.09;5017839;28;20104;-75
2023/08/04 04:04:03;;;;;;;17.98;13.18;;;;;;;21.00;nan;99823.13;5016596;28;20155;-75
2023/08/04 04:06:28;;;;;;;15.70;13.27;;;;;;;21.08;nan;99824.25;5015954;28;20026;-75
2023/08/04 04:08:54;;;;;;;15.63;13.02;;;;;;;21.08;nan;99818.13;5013321;28;20068;-75
2023/08/04 04:11:19;;;;;;;21.13;14.40;;;;;;;21.13;nan;99817.97;5018827;28;20464;-74
2023/08/04 04:13:45;;;;;;;17.77;13.68;;;;;;;21.14;nan;99824.91;5018317;28;20116;-75
2023/08/04 04:16:10;;;;;;;23.20;13.77;;;;;;;21.13;nan;99818.75;5018439;28;20021;-73
2023/08/04 04:18:36;;;;;;;16.70;13.77;;;;;;;20.98;nan;99801.22;5015672;28;20017;-74
2023/08/04 04:21:01;;;;;;;17.00;13.98;;;;;;;21.24;nan;99840.72;5020794;28;20033;-74
2023/08/04 04:23:27;;;;;;;18.75;13.57;;;;;;;21.28;nan;99830.16;4967303;28;1464842;-74
2023/08/04 04:25:53;;;;;;;21.27;14.55;;;;;;;21.28;nan;99827.47;5016369;28;20037;-75
2023/08/04 04:28:19;;;;;;;16.20;13.80;;;;;;;21.36;nan;99840.13;5022597;28;20029;-75
2023/08/04 04:30:44;;;;;;;16.73;13.98;;;;;;;21.40;nan;99831.16;5022029;28;20021;-74
2023/08/04 04:33:10;;;;;;;15.10;13.43;;;;;;;21.39;nan;99834.94;5019339;28;20485;-74
2023/08/04 04:35:35;;;;;;;17.58;14.13;;;;;;;21.53;nan;99845.53;5020674;28;20028;-75
2023/08/04 04:38:01;;;;;;;17.60;13.98;;;;;;;21.48;nan;99832.31;5017368;28;20025;-74
2023/08/04 04:40:26;;;;;;;16.00;13.13;;;;;;;21.60;nan;99850.47;5005569;28;20037;-75
2023/08/04 04:42:51;;;;;;;17.70;13.15;;;;;;;21.63;nan;99844.47;5018555;28;20555;-75
2023/08/04 04:45:17;;;;;;;21.77;13.38;;;;;;;21.67;nan;99851.56;5014011;28;20211;-74
2023/08/04 04:47:42;;;;;;;15.55;12.40;;;;;;;21.76;nan;99851.56;5018682;28;20481;-73
2023/08/04 04:50:08;;;;;;;19.63;13.55;;;;;;;21.74;nan;99834.22;5020033;28;20060;-74
2023/08/04 04:52:36;;;;;;;17.58;13.00;;;;;;;21.83;nan;99848.44;5018469;28;20025;-74
2023/08/04 04:55:05;;;;;;;19.88;12.70;;;;;;;21.93;nan;99850.00;5042157;28;20495;-74
2023/08/04 04:57:31;;;;;;;;;;;;;;;22.04;nan;99849.41;5016432;28;20041;-74
2023/08/04 04:59:56;;;;;;;24.73;12.43;;;;;;;22.14;nan;99852.88;5013653;28;20661;-74
2023/08/04 05:02:22;;;;;;;16.38;12.10;;;;;;;22.21;nan;99850.53;5010195;28;20026;-76
2023/08/04 05:04:48;;;;;;;19.70;12.90;;;;;;;22.30;nan;99860.16;5014617;28;20112;-74
2023/08/04 05:07:14;;;;;;;16.98;12.27;;;;;;;22.38;nan;99855.09;5015188;28;20117;-75
2023/08/04 05:09:39;;;;;;;15.18;12.43;;;;;;;22.56;nan;99861.25;5019311;28;20028;-75
2023/08/04 05:12:06;;;;;;;14.73;11.63;;;;;;;22.59;nan;99847.97;5014276;28;20049;-74
2023/08/04 05:14:33;;;;;;;26.00;12.50;;;;;;;22.80;nan;99856.13;5016140;28;20033;-72
2023/08/04 05:16:58;;;;;;;18.95;11.45;;;;;;;22.88;nan;99859.91;5014859;28;20025;-73
2023/08/04 05:19:24;;;;;;;18.48;11.50;;;;;;;22.99;nan;99858.47;5015835;28;20491;-73
2023/08/04 05:21:49;;;;;;;15.65;10.90;;;;;;;23.09;nan;99850.06;5016086;28;20663;-74
2023/08/04 05:24:15;;;;;;;15.60;10.40;;;;;;;23.16;nan;99841.50;5014687;28;20488;-74
2023/08/04 05:26:41;;;;;;;14.25;10.95;;;;;;;23.20;nan;99837.09;5014865;28;20021;-73
2023/08/04 05:29:06;;;;;;;16.02;11.10;;;;;;;23.35;nan;99846.47;5015215;28;20024;-73
2023/08/04 05:31:32;;;;;;;14.20;10.18;;;;;;;23.49;nan;99851.63;5022982;28;20546;-74
2023/08/04 05:33:57;;;;;;;15.23;10.45;;;;;;;23.54;nan;99844.16;5022564;28;21096;-74
2023/08/04 05:36:23;;;;;;;18.70;10.48;;;;;;;23.64;nan;99843.00;5022108;28;20040;-74
2023/08/04 05:38:48;;;;;;;23.98;10.00;;;;;;;23.70;nan;99851.66;5020411;28;20025;-73
2023/08/04 05:41:14;;;;;;;20.23;10.07;;;;;;;23.84;nan;99852.22;5017097;28;20030;-75
2023/08/04 05:43:39;;;;;;;22.92;10.00;;;;;;;23.95;nan;99858.00;5018386;28;20072;-75
2023/08/04 05:46:05;;;;;;;12.88;9.57;;;;;;;24.11;nan;99855.50;5016415;28;20113;-75
2023/08/04 05:48:32;;;;;;;24.25;10.43;;;;;;;24.17;nan;99856.88;5015887;28;20036;-75
2023/08/04 05:50:58;;;;;;;25.30;9.63;;;;;;;24.24;nan;99859.03;5017580;28;20053;-77
2023/08/04 05:53:23;;;;;;;17.30;9.43;;;;;;;24.38;nan;99863.03;5015833;28;20080;-75
2023/08/04 05:55:48;;;;;;;16.35;9.07;;;;;;;24.34;nan;99856.72;5017415;28;20543;-72
2023/08/04 05:58:14;;;;;;;22.55;9.60;;;;;;;24.44;nan;99868.97;5016680;28;20026;-74
2023/08/04 06:00:39;;;;;;;22.70;9.65;;;;;;;24.53;nan;99872.41;5016082;28;20087;-72
2023/08/04 06:03:05;;;;;;;15.90;9.30;;;;;;;24.57;nan;99873.34;5022649;28;20033;-72
2023/08/04 06:05:30;;;;;;;18.00;9.38;;;;;;;24.70;nan;99859.91;5017991;28;20129;-70
2023/08/04 06:07:56;;;;;;;19.48;9.00;;;;;;;24.81;nan;99858.38;5014844;28;20052;-71
2023/08/04 06:10:22;;;;;;;12.55;9.00;;;;;;;24.99;nan;99867.81;5015736;28;20443;-71
2023/08/04 06:12:47;;;;;;;12.98;8.32;;;;;;;25.03;nan;99867.94;5017391;28;20032;-73
2023/08/04 06:15:13;;;;;;;16.83;8.75;;;;;;;25.11;nan;99866.25;5016431;28;20036;-72
2023/08/04 06:17:40;;;;;;;20.40;8.63;;;;;;;25.25;nan;99867.53;5013680;28;20029;-71
2023/08/04 06:20:07;;;;;;;18.05;8.23;;;;;;;25.37;nan;99864.03;5016036;28;20029;-71
2023/08/04 06:22:32;;;;;;;12.23;7.50;;;;;;;25.46;nan;99862.03;5015034;28;20492;-70
2023/08/04 06:24:58;;;;;;;18.75;7.55;;;;;;;25.55;nan;99869.19;5016646;28;20040;-71
2023/08/04 06:27:23;;;;;;;11.68;6.90;;;;;;;25.70;nan;99863.13;5020225;28;20057;-70
2023/08/04 06:29:48;;;;;;;10.88;7.53;;;;;;;25.78;nan;99864.13;5013514;28;20383;-71
2023/08/04 06:32:14;;;;;;;14.70;7.18;;;;;;;25.68;nan;99849.19;5018907;28;20086;-71
2023/08/04 06:34:39;;;;;;;8.93;6.93;;;;;;;25.87;nan;99870.19;5017315;28;20018;-71
2023/08/04 06:37:05;;;;;;;15.68;7.28;;;;;;;25.93;nan;99866.16;5017434;28;20033;-72
2023/08/04 06:39:30;;;;;;;11.02;7.55;;;;;;;25.95;nan;99861.19;5014263;28;20399;-71
2023/08/04 06:41:56;;;;;;;13.70;6.50;;;;;;;26.11;nan;99869.34;5016505;28;20095;-71
2023/08/04 06:44:21;;;;;;;13.00;7.85;;;;;;;26.17;nan;99864.47;5014243;28;20034;-71
2023/08/04 06:46:47;;;;;;;9.07;7.57;;;;;;;26.24;nan;99865.50;5019792;28;20042;-72
2023/08/04 06:49:12;;;;;;;8.00;7.03;;;;;;;26.36;nan;99867.31;5016218;28;20029;-70
2023/08/04 06:51:38;;;;;;;12.45;7.15;;;;;;;26.44;nan;99863.72;5016023;28;20030;-71
2023/08/04 06:54:03;;;;;;;9.48;7.22;;;;;;;26.49;nan;99866.16;5013985;28;20029;-70
2023/08/04 06:56:28;;;;;;;10.03;7.17;;;;;;;26.65;nan;99870.81;5015671;28;20491;-70
2023/08/04 06:58:54;;;;;;;12.18;7.03;;;;;;;26.69;nan;99871.72;5020131;28;20763;-72
2023/08/04 07:01:19;;;;;;;8.07;6.90;;;;;;;26.87;nan;99883.00;5017508;28;20391;-71
2023/08/04 07:03:47;;;;;;;13.25;6.78;;;;;;;26.96;nan;99878.22;5015158;28;20266;-71
2023/08/04 07:06:12;;;;;;;13.18;7.07;;;;;;;27.12;nan;99875.47;5017512;28;20033;-72
2023/08/04 07:08:38;;;;;;;13.35;6.93;;;;;;;27.16;nan;99881.78;5011248;28;20030;-71
2023/08/04 07:11:03;;;;;;;9.45;6.72;;;;;;;27.21;nan;99878.84;5018343;28;20059;-72
2023/08/04 07:13:29;;;;;;;8.13;6.72;;;;;;;27.20;nan;99879.16;5014714;28;20026;-70
2023/08/04 07:15:58;;;;;;;8.70;6.40;;;;;;;27.36;nan;99888.06;5017940;28;20026;-71
2023/08/04 07:18:23;;;;;;;13.55;6.47;;;;;;;27.39;nan;99887.34;5017524;28;20083;-71
2023/08/04 07:20:49;;;;;;;7.35;6.60;;;;;;;27.46;nan;99884.81;5017256;28;20431;-70
2023/08/04 07:23:14;;;;;;;8.70;6.35;;;;;;;27.45;nan;99875.13;5026312;28;20815;-70
2023/08/04 07:25:40;;;;;;;9.90;6.53;;;;;;;27.52;nan;99872.59;5018596;28;20032;-69
2023/08/04 07:28:05;;;;;;;10.75;6.57;;;;;;;27.58;nan;99882.03;5018949;28;20030;-69
2023/08/04 07:30:32;;;;;;;8.65;6.90;;;;;;;27.60;nan;99872.75;5021001;28;20416;-70
2023/08/04 07:32:58;;;;;;;9.63;6.78;;;;;;;27.66;nan;99877.56;5015846;28;20130;-71
2023/08/04 07:35:23;;;;;;;11.23;6.45;;;;;;;27.66;nan;99869.44;5018190;28;20617;-69
2023/08/04 07:37:49;;;;;;;8.82;6.40;;;;;;;27.81;nan;99884.03;5019838;28;20049;-70
2023/08/04 07:40:14;;;;;;;18.38;6.65;;;;;;;27.90;nan;99889.31;5020760;28;20067;-70
2023/08/04 07:42:40;;;;;;;13.60;6.75;;;;;;;27.96;nan;99877.03;5018280;28;20017;-70
2023/08/04 07:45:06;;;;;;;12.98;6.63;;;;;;;28.07;nan;99880.75;5019240;28;20022;-70
2023/08/04 07:47:31;;;;;;;10.55;6.00;;;;;;;28.14;nan;99878.19;5019138;28;20424;-70
2023/08/04 07:49:57;;;;;;;9.77;6.60;;;;;;;28.17;nan;99877.47;5023946;28;20504;-70
2023/08/04 07:52:22;;;;;;;10.35;6.63;;;;;;;28.29;nan;99878.47;5029337;28;20022;-70
2023/08/04 07:54:48;;;;;;;10.88;6.32;;;;;;;28.26;nan;99871.84;5039108;28;20037;-69
2023/08/04 07:57:13;;;;;;;10.43;6.50;;;;;;;28.42;nan;99880.69;5029771;28;20029;-70
2023/08/04 07:59:38;;;;;;;16.23;7.22;;;;;;;28.34;nan;99856.53;5027935;28;20051;-70
2023/08/04 08:02:04;;;;;;;12.73;6.80;;;;;;;28.49;nan;99880.03;5036095;28;20109;-70
2023/08/04 08:04:30;;;;;;;9.70;7.07;;;;;;;28.60;nan;99880.25;5027137;28;20025;-70
2023/08/04 08:06:55;;;;;;;12.48;6.57;;;;;;;28.71;nan;99875.00;5036750;28;20044;-70
2023/08/04 08:09:21;;;;;;;11.00;6.93;;;;;;;28.81;nan;99877.16;5031730;28;20033;-70
2023/08/04 08:11:46;;;;;;;16.63;7.32;;;;;;;28.88;nan;99868.34;5030857;28;20026;-69
2023/08/04 08:14:11;;;;;;;9.53;6.50;;;;;;;29.00;nan;99870.88;5030798;28;20706;-70
2023/08/04 08:16:37;;;;;;;9.63;6.85;;;;;;;29.11;nan;99862.94;5027503;28;20260;-71
2023/08/04 08:19:03;;;;;;;17.23;6.60;;;;;;;29.27;nan;99861.66;5027787;28;20101;-70
2023/08/04 08:21:30;;;;;;;11.32;6.50;;;;;;;29.39;nan;99868.81;5028821;28;20373;-71
2023/08/04 08:23:56;;;;;;;14.90;6.55;;;;;;;29.47;nan;99865.06;5025375;28;20083;-71
2023/08/04 08:26:21;;;;;;;13.43;6.55;;;;;;;29.73;nan;99871.63;5025154;28;20086;-70
2023/08/04 08:28:47;;;;;;;7.93;6.22;;;;;;;29.79;nan;99862.03;5022772;28;22012;-71
2023/08/04 08:31:12;;;;;;;9.10;6.22;;;;;;;29.95;nan;99874.63;5020038;28;20049;-71
2023/08/04 08:33:38;;;;;;;8.55;6.22;;;;;;;29.96;nan;99870.78;5019075;28;20029;-69
2023/08/04 08:36:04;;;;;;;10.60;6.18;;;;;;;30.04;nan;99875.13;5017817;28;20037;-70
2023/08/04 08:38:31;;;;;;;6.55;5.78;;;;;;;30.06;nan;99879.03;5015406;28;20022;-70
2023/08/04 08:40:56;;;;;;;12.00;6.03;;;;;;;30.05;nan;99868.53;5018282;28;20100;-70
2023/08/04 08:43:22;;;;;;;8.67;6.30;;;;;;;30.04;nan;99856.91;5018207;28;20579;-73
2023/08/04 08:45:49;;;;;;;10.73;6.13;;;;;;;30.20;nan;99858.63;5015410;28;20271;-71
2023/08/04 08:48:15;;;;;;;9.20;7.03;;;;;;;30.25;nan;99850.97;5016364;28;20113;-71
2023/08/04 08:50:43;;;;;;;11.25;6.40;;;;;;;30.48;nan;99855.44;5016404;28;20121;-71
2023/08/04 08:53:11;;;;;;;7.22;5.68;;;;;;;30.62;nan;99847.44;5015525;28;20686;-70
2023/08/04 08:55:37;;;;;;;11.48;6.38;;;;;;;30.81;nan;99856.53;5025801;28;20048;-70
2023/08/04 08:58:03;;;;;;;9.48;5.97;;;;;;;30.90;nan;99859.75;5018585;28;20030;-69
2023/08/04 09:00:29;;;;;;;37.45;7.07;;;;;;;31.04;nan;99856.38;5014368;28;20026;-70
2023/08/04 09:02:55;;;;;;;9.05;6.30;;;;;;;31.22;nan;99861.94;5015016;28;20041;-70
2023/08/04 09:05:21;;;;;;;16.25;5.93;;;;;;;31.24;nan;99854.19;5023014;28;20120;-70
2023/08/04 09:07:49;;;;;;;11.63;6.70;;;;;;;31.27;nan;99847.97;5016827;28;20493;-70
2023/08/04 09:10:15;;;;;;;6.97;6.13;;;;;;;31.33;nan;99849.97;5017421;28;20424;-71
2023/08/04 09:12:44;;;;;;;7.47;6.32;;;;;;;31.42;nan;99846.19;5016566;28;20032;-71
2023/08/04 09:15:10;;;;;;;6.78;6.10;;;;;;;31.54;nan;99843.91;5016849;28;20101;-71
2023/08/04 09:17:37;;;;;;;12.18;6.20;;;;;;;31.61;nan;99840.44;5015600;28;20109;-70
2023/08/04 09:20:08;;;;;;;11.43;6.00;;;;;;;31.67;nan;99844.34;5018615;28;20381;-71
2023/08/04 09:22:43;;;;;;;10.73;6.13;;;;;;;31.73;nan;99840.13;5017616;28;20099;-70
2023/08/04 09:25:09;;;;;;;8.50;5.97;;;;;;;31.86;nan;99837.81;5017507;28;20357;-71
2023/08/04 09:27:38;;;;;;;10.73;6.10;;;;;;;31.93;nan;99835.13;5013274;28;20120;-71
2023/08/04 09:30:05;;;;;;;7.80;6.05;;;;;;;32.01;nan;99841.41;5016864;28;20029;-70
2023/08/04 09:32:39;;;;;;;9.90;6.00;;;;;;;32.05;nan;99850.38;5016211;28;20026;-70
2023/08/04 09:35:05;;;;;;;8.70;6.03;;;;;;;32.15;nan;99854.28;5018554;28;20111;-71
2023/08/04 09:37:35;;;;;;;7.65;6.15;;;;;;;32.17;nan;99836.41;5023752;28;20028;-70
2023/08/04 09:40:05;;;;;;;8.77;6.25;;;;;;;32.25;nan;99845.38;5017096;28;20025;-71
2023/08/04 09:42:31;;;;;;;7.55;5.93;;;;;;;32.27;nan;99829.41;5018579;28;20029;-71
2023/08/04 09:44:56;;;;;;;11.80;6.72;;;;;;;32.36;nan;99840.72;5019796;28;20022;-70
2023/08/04 09:47:27;;;;;;;9.60;5.88;;;;;;;32.42;nan;99833.75;5015989;28;20033;-70
2023/08/04 09:49:53;;;;;;;8.75;5.80;;;;;;;32.47;nan;99831.78;5016944;28;20022;-71
2023/08/04 09:52:27;;;;;;;9.45;5.68;;;;;;;32.55;nan;99830.66;5016959;28;20565;-71
2023/08/04 09:54:55;;;;;;;6.85;5.65;;;;;;;32.58;nan;99818.97;5019101;28;20036;-72
2023/08/04 09:57:22;;;;;;;7.43;5.60;;;;;;;32.73;nan;99830.66;5016374;28;20069;-70
2023/08/04 09:59:49;;;;;;;9.10;5.40;;;;;;;32.79;nan;99827.16;5014217;28;20222;-70
2023/08/04 10:02:15;;;;;;;7.25;5.70;;;;;;;32.92;nan;99827.53;5013861;28;20036;-70
2023/08/04 10:04:41;;;;;;;9.30;5.63;;;;;;;33.01;nan;99824.44;5015360;28;20029;-70
2023/08/04 10:07:10;;;;;;;10.40;6.50;;;;;;;33.03;nan;99822.09;5014544;28;20075;-72
2023/08/04 10:09:36;;;;;;;8.80;6.15;;;;;;;33.08;nan;99824.44;5015439;28;20695;-73
2023/08/04 10:12:02;;;;;;;14.05;6.13;;;;;;;33.13;nan;99817.81;5016008;28;20026;-73
2023/08/04 10:14:27;;;;;;;6.90;6.20;;;;;;;33.22;nan;99823.66;5011769;28;20068;-73
2023/08/04 10:16:54;;;;;;;9.18;5.90;;;;;;;33.19;nan;99819.75;5013264;28;20033;-72
2023/08/04 10:19:20;;;;;;;10.15;6.22;;;;;;;33.29;nan;99820.13;5014565;28;20129;-72
2023/08/04 10:21:45;;;;;;;7.82;5.72;;;;;;;33.36;nan;99814.66;5017614;28;20140;-70
2023/08/04 10:24:12;;;;;;;8.52;5.57;;;;;;;33.44;nan;99810.72;5014773;28;20030;-69
2023/08/04 10:26:48;;;;;;;10.48;6.03;;;;;;;33.52;nan;99806.78;5014693;28;20492;-70
2023/08/04 10:29:15;;;;;;;9.30;5.93;;;;;;;33.57;nan;99809.16;5014897;28;20025;-69
2023/08/04 10:31:51;;;;;;;10.38;5.90;;;;;;;33.63;nan;99807.56;5015355;28;20105;-71
2023/08/04 10:34:22;;;;;;;12.13;6.78;;;;;;;33.67;nan;99802.09;5021012;28;20496;-70
2023/08/04 10:37:09;;;;;;;15.32;6.72;;;;;;;33.71;nan;99804.81;5016114;28;20518;-70
2023/08/04 10:39:55;;;;;;;10.50;6.22;;;;;;;33.75;nan;99795.41;5018017;28;20026;-70
2023/08/04 10:42:21;;;;;;;9.05;5.80;;;;;;;33.77;nan;99800.50;5022187;28;20404;-70
2023/08/04 10:44:53;;;;;;;12.32;6.45;;;;;;;33.78;nan;99794.63;5013493;28;20106;-70
2023/08/04 10:47:29;;;;;;;7.68;6.10;;;;;;;33.84;nan;99789.53;5017662;28;20034;-70
2023/08/04 10:49:55;;;;;;;6.63;5.95;;;;;;;33.86;nan;99779.00;5016556;28;20530;-70
2023/08/04 10:52:21;;;;;;;8.45;6.10;;;;;;;33.96;nan;99783.59;5022990;28;20033;-70
2023/08/04 10:54:47;;;;;;;8.90;6.20;;;;;;;34.15;nan;99795.25;5016238;28;20025;-70
2023/08/04 10:57:24;;;;;;;6.80;6.07;;;;;;;34.25;nan;99792.44;5019481;28;20049;-70
2023/08/04 10:59:50;;;;;;;8.05;5.97;;;;;;;34.34;nan;99785.72;5018398;28;20053;-69
2023/08/04 11:02:17;;;;;;;9.48;5.70;;;;;;;34.41;nan;99775.53;5016760;28;20055;-68
2023/08/04 11:04:44;;;;;;;10.00;5.82;;;;;;;34.53;nan;99777.78;5017327;28;20028;-69
2023/08/04 11:07:10;;;;;;;7.68;5.80;;;;;;;34.60;nan;99776.97;5020207;28;20076;-69
2023/08/04 11:09:35;;;;;;;11.73;5.88;;;;;;;34.70;nan;99764.38;5020150;28;20563;-68
2023/08/04 11:12:03;;;;;;;24.83;6.25;;;;;;;34.65;nan;99751.16;5013807;28;20104;-69
2023/08/04 11:14:28;;;;;;;10.27;6.35;;;;;;;34.81;nan;99745.91;5018846;28;20033;-69
2023/08/04 11:16:58;;;;;;;7.53;5.32;;;;;;;34.91;nan;99753.25;5017509;28;20763;-70
2023/08/04 11:19:23;;;;;;;8.85;5.78;;;;;;;34.95;nan;99753.97;5018053;28;20041;-70
2023/08/04 11:21:48;;;;;;;7.68;5.03;;;;;;;35.00;nan;99755.47;5022012;28;20050;-70
2023/08/04 11:24:14;;;;;;;13.32;5.50;;;;;;;35.03;nan;99759.34;5016870;28;20053;-70
2023/08/04 11:26:42;;;;;;;10.43;5.03;;;;;;;35.09;nan;99758.50;5018179;28;20025;-72
2023/08/04 11:29:08;;;;;;;10.65;5.57;;;;;;;35.09;nan;99752.25;5016071;28;20123;-71
2023/08/04 11:31:33;;;;;;;6.57;5.05;;;;;;;35.13;nan;99750.31;5020880;28;20745;-71
2023/08/04 11:33:58;;;;;;;6.85;5.07;;;;;;;35.18;nan;99749.06;5021595;28;20100;-70